sensor_id;sensor_type;location;lat;lon;timestamp;temperature;humidity
44855;DHT22;30591;48.228;16.398;2022-11-20T00:01:22;0.70;99.90
44855;DHT22;30591;48.228;16.398;2022-11-20T00:03:52;0.70;99.90
44855;DHT22;30591;48.228;16.398;2022-11-20T00:06:20;0.60;99.90
44855;DHT22;30591;48.228;16.398;2022-11-20T00:08:50;0.60;99.90
44855;DHT22;30591;48.228;16.398;2022-11-20T00:11:19;0.60;99.90
44855;DHT22;30591;48.228;16.398;2022-11-20T00:13:49;0.60;99.90
44855;DHT22;30591;48.228;16.398;2022-11-20T00:16:20;0.60;99.90
44855;DHT22;30591;48.228;16.398;2022-11-20T00:18:47;0.50;99.90
44855;DHT22;30591;48.228;16.398;2022-11-20T00:21:23;0.60;99.90
44855;DHT22;30591;48.228;16.398;2022-11-20T00:23:54;0.60;99.90
44855;DHT22;30591;48.228;16.398;2022-11-20T00:26:23;0.60;99.90
44855;DHT22;30591;48.228;16.398;2022-11-20T00:28:56;0.60;99.90
44855;DHT22;30591;48.228;16.398;2022-11-20T00:31:25;0.50;99.90
44855;DHT22;30591;48.228;16.398;2022-11-20T00:33:53;0.60;99.90
44855;DHT22;30591;48.228;16.398;2022-11-20T00:36:23;0.60;99.90
44855;DHT22;30591;48.228;16.398;2022-11-20T00:38:56;0.60;99.90
44855;DHT22;30591;48.228;16.398;2022-11-20T00:41:24;0.60;99.90
44855;DHT22;30591;48.228;16.398;2022-11-20T00:43:54;0.60;99.90
44855;DHT22;30591;48.228;16.398;2022-11-20T00:46:24;0.70;99.90
44855;DHT22;30591;48.228;16.398;2022-11-20T00:48:53;0.70;99.90
44855;DHT22;30591;48.228;16.398;2022-11-20T00:51:24;0.70;99.90
44855;DHT22;30591;48.228;16.398;2022-11-20T00:53:56;0.70;99.90
44855;DHT22;30591;48.228;16.398;2022-11-20T00:56:24;0.80;99.90
44855;DHT22;30591;48.228;16.398;2022-11-20T00:58:51;0.80;99.90
44855;DHT22;30591;48.228;16.398;2022-11-20T01:01:21;0.80;99.90
44855;DHT22;30591;48.228;16.398;2022-11-20T01:03:52;0.70;99.90
44855;DHT22;30591;48.228;16.398;2022-11-20T01:08:54;0.70;99.90
44855;DHT22;30591;48.228;16.398;2022-11-20T01:11:28;0.70;99.90
44855;DHT22;30591;48.228;16.398;2022-11-20T01:13:57;0.60;99.90
44855;DHT22;30591;48.228;16.398;2022-11-20T01:16:32;0.60;99.90
44855;DHT22;30591;48.228;16.398;2022-11-20T01:19:01;0.50;99.90
44855;DHT22;30591;48.228;16.398;2022-11-20T01:21:34;0.50;99.90
44855;DHT22;30591;48.228;16.398;2022-11-20T01:24:03;0.50;99.90
44855;DHT22;30591;48.228;16.398;2022-11-20T01:26:33;0.50;99.90
44855;DHT22;30591;48.228;16.398;2022-11-20T01:29:01;0.50;99.90
44855;DHT22;30591;48.228;16.398;2022-11-20T01:31:35;0.40;99.90
44855;DHT22;30591;48.228;16.398;2022-11-20T01:34:05;0.50;99.90
44855;DHT22;30591;48.228;16.398;2022-11-20T01:36:34;0.40;99.90
44855;DHT22;30591;48.228;16.398;2022-11-20T01:39:10;0.40;99.90
44855;DHT22;30591;48.228;16.398;2022-11-20T01:41:38;0.40;99.90
44855;DHT22;30591;48.228;16.398;2022-11-20T01:44:50;0.40;99.90
44855;DHT22;30591;48.228;16.398;2022-11-20T01:47:36;0.30;99.90
44855;DHT22;30591;48.228;16.398;2022-11-20T01:50:16;0.30;99.90
44855;DHT22;30591;48.228;16.398;2022-11-20T01:52:56;0.30;99.90
44855;DHT22;30591;48.228;16.398;2022-11-20T01:55:31;0.30;99.90
44855;DHT22;30591;48.228;16.398;2022-11-20T01:58:00;0.30;99.90
44855;DHT22;30591;48.228;16.398;2022-11-20T02:00:28;0.30;99.90
44855;DHT22;30591;48.228;16.398;2022-11-20T02:03:05;0.40;99.90
44855;DHT22;30591;48.228;16.398;2022-11-20T02:05:41;0.40;99.90
44855;DHT22;30591;48.228;16.398;2022-11-20T02:08:13;0.40;99.90
44855;DHT22;30591;48.228;16.398;2022-11-20T02:10:40;0.40;99.90
44855;DHT22;30591;48.228;16.398;2022-11-20T02:13:08;0.30;99.90
44855;DHT22;30591;48.228;16.398;2022-11-20T02:15:55;0.40;99.90
44855;DHT22;30591;48.228;16.398;2022-11-20T02:18:23;0.40;99.90
44855;DHT22;30591;48.228;16.398;2022-11-20T02:20:59;0.30;99.90
44855;DHT22;30591;48.228;16.398;2022-11-20T02:26:24;0.30;99.90
44855;DHT22;30591;48.228;16.398;2022-11-20T02:28:51;0.40;99.90
44855;DHT22;30591;48.228;16.398;2022-11-20T02:31:19;0.40;99.90
44855;DHT22;30591;48.228;16.398;2022-11-20T02:33:46;0.40;99.90
44855;DHT22;30591;48.228;16.398;2022-11-20T02:36:15;0.40;99.90
44855;DHT22;30591;48.228;16.398;2022-11-20T02:38:43;0.40;99.90
44855;DHT22;30591;48.228;16.398;2022-11-20T02:41:10;0.40;99.90
44855;DHT22;30591;48.228;16.398;2022-11-20T02:43:37;0.40;99.90
44855;DHT22;30591;48.228;16.398;2022-11-20T02:46:08;0.40;99.90
44855;DHT22;30591;48.228;16.398;2022-11-20T02:48:35;0.40;99.90
44855;DHT22;30591;48.228;16.398;2022-11-20T02:51:02;0.40;99.90
44855;DHT22;30591;48.228;16.398;2022-11-20T02:53:30;0.40;99.90
44855;DHT22;30591;48.228;16.398;2022-11-20T02:55:57;0.40;99.90
44855;DHT22;30591;48.228;16.398;2022-11-20T02:58:24;0.40;99.90
44855;DHT22;30591;48.228;16.398;2022-11-20T03:00:52;0.40;99.90
44855;DHT22;30591;48.228;16.398;2022-11-20T03:03:19;0.40;99.90
44855;DHT22;30591;48.228;16.398;2022-11-20T03:05:47;0.40;99.90
44855;DHT22;30591;48.228;16.398;2022-11-20T03:08:14;0.30;99.90
44855;DHT22;30591;48.228;16.398;2022-11-20T03:10:41;0.30;99.90
44855;DHT22;30591;48.228;16.398;2022-11-20T03:13:08;0.30;99.90
44855;DHT22;30591;48.228;16.398;2022-11-20T03:15:36;0.40;99.90
44855;DHT22;30591;48.228;16.398;2022-11-20T03:18:04;0.40;99.90
44855;DHT22;30591;48.228;16.398;2022-11-20T03:20:33;0.30;99.90
44855;DHT22;30591;48.228;16.398;2022-11-20T03:23:01;0.30;99.90
44855;DHT22;30591;48.228;16.398;2022-11-20T03:25:29;0.30;99.90
44855;DHT22;30591;48.228;16.398;2022-11-20T03:27:56;0.30;99.90
44855;DHT22;30591;48.228;16.398;2022-11-20T03:30:23;0.40;99.90
44855;DHT22;30591;48.228;16.398;2022-11-20T03:32:56;0.30;99.90
44855;DHT22;30591;48.228;16.398;2022-11-20T03:35:23;0.30;99.90
44855;DHT22;30591;48.228;16.398;2022-11-20T03:37:51;0.40;99.90
44855;DHT22;30591;48.228;16.398;2022-11-20T03:40:18;0.40;99.90
44855;DHT22;30591;48.228;16.398;2022-11-20T03:42:45;0.40;99.90
44855;DHT22;30591;48.228;16.398;2022-11-20T03:45:14;0.40;99.90
44855;DHT22;30591;48.228;16.398;2022-11-20T03:47:43;0.30;99.90
44855;DHT22;30591;48.228;16.398;2022-11-20T03:50:12;0.30;99.90
44855;DHT22;30591;48.228;16.398;2022-11-20T03:52:41;0.20;99.90
44855;DHT22;30591;48.228;16.398;2022-11-20T03:55:08;0.30;99.90
44855;DHT22;30591;48.228;16.398;2022-11-20T03:57:36;0.30;99.90
44855;DHT22;30591;48.228;16.398;2022-11-20T04:00:04;0.30;99.90
44855;DHT22;30591;48.228;16.398;2022-11-20T04:02:32;0.30;99.90
44855;DHT22;30591;48.228;16.398;2022-11-20T04:04:59;0.40;99.90
44855;DHT22;30591;48.228;16.398;2022-11-20T04:07:26;0.30;99.90
44855;DHT22;30591;48.228;16.398;2022-11-20T04:09:54;0.30;99.90
44855;DHT22;30591;48.228;16.398;2022-11-20T04:12:21;0.30;99.90
44855;DHT22;30591;48.228;16.398;2022-11-20T04:14:48;0.20;99.90
44855;DHT22;30591;48.228;16.398;2022-11-20T04:17:15;0.30;99.90
44855;DHT22;30591;48.228;16.398;2022-11-20T04:19:42;0.20;99.90
44855;DHT22;30591;48.228;16.398;2022-11-20T04:22:10;0.30;99.90
44855;DHT22;30591;48.228;16.398;2022-11-20T04:24:38;0.30;99.90
44855;DHT22;30591;48.228;16.398;2022-11-20T04:27:05;0.20;99.90
44855;DHT22;30591;48.228;16.398;2022-11-20T04:29:33;0.20;99.90
44855;DHT22;30591;48.228;16.398;2022-11-20T04:32:00;0.20;99.90
44855;DHT22;30591;48.228;16.398;2022-11-20T04:34:27;0.20;99.90
44855;DHT22;30591;48.228;16.398;2022-11-20T04:36:54;0.20;99.90
44855;DHT22;30591;48.228;16.398;2022-11-20T04:39:22;0.20;99.90
44855;DHT22;30591;48.228;16.398;2022-11-20T04:41:49;0.30;99.90
44855;DHT22;30591;48.228;16.398;2022-11-20T04:44:37;0.20;99.90
44855;DHT22;30591;48.228;16.398;2022-11-20T04:47:04;0.40;99.90
44855;DHT22;30591;48.228;16.398;2022-11-20T04:49:31;0.30;99.90
44855;DHT22;30591;48.228;16.398;2022-11-20T04:52:00;0.30;99.90
44855;DHT22;30591;48.228;16.398;2022-11-20T04:54:28;0.30;99.90
44855;DHT22;30591;48.228;16.398;2022-11-20T04:56:56;0.30;99.90
44855;DHT22;30591;48.228;16.398;2022-11-20T04:59:24;0.30;99.90
44855;DHT22;30591;48.228;16.398;2022-11-20T05:01:52;0.30;99.90
44855;DHT22;30591;48.228;16.398;2022-11-20T05:04:19;0.30;99.90
44855;DHT22;30591;48.228;16.398;2022-11-20T05:06:47;0.30;99.90
44855;DHT22;30591;48.228;16.398;2022-11-20T05:09:14;0.20;99.90
44855;DHT22;30591;48.228;16.398;2022-11-20T05:11:41;0.30;99.90
44855;DHT22;30591;48.228;16.398;2022-11-20T05:14:08;0.30;99.90
44855;DHT22;30591;48.228;16.398;2022-11-20T05:16:36;0.30;99.90
44855;DHT22;30591;48.228;16.398;2022-11-20T05:19:03;0.40;99.90
44855;DHT22;30591;48.228;16.398;2022-11-20T05:21:31;0.40;99.90
44855;DHT22;30591;48.228;16.398;2022-11-20T05:23:59;0.40;99.90
44855;DHT22;30591;48.228;16.398;2022-11-20T05:26:26;0.40;99.90
44855;DHT22;30591;48.228;16.398;2022-11-20T05:28:53;0.30;99.90
44855;DHT22;30591;48.228;16.398;2022-11-20T05:31:23;0.40;99.90
44855;DHT22;30591;48.228;16.398;2022-11-20T05:33:55;0.40;99.90
44855;DHT22;30591;48.228;16.398;2022-11-20T05:36:24;0.30;99.90
44855;DHT22;30591;48.228;16.398;2022-11-20T05:38:51;0.30;99.90
44855;DHT22;30591;48.228;16.398;2022-11-20T05:41:27;0.20;99.90
44855;DHT22;30591;48.228;16.398;2022-11-20T05:43:56;0.20;99.90
44855;DHT22;30591;48.228;16.398;2022-11-20T05:46:25;0.30;99.90
44855;DHT22;30591;48.228;16.398;2022-11-20T05:48:56;0.40;99.90
44855;DHT22;30591;48.228;16.398;2022-11-20T05:51:24;0.40;99.90
44855;DHT22;30591;48.228;16.398;2022-11-20T05:53:52;0.30;99.90
44855;DHT22;30591;48.228;16.398;2022-11-20T05:56:21;0.40;99.90
44855;DHT22;30591;48.228;16.398;2022-11-20T05:58:49;0.40;99.90
44855;DHT22;30591;48.228;16.398;2022-11-20T06:01:20;0.30;99.90
44855;DHT22;30591;48.228;16.398;2022-11-20T06:03:49;0.30;99.90
44855;DHT22;30591;48.228;16.398;2022-11-20T06:06:19;0.20;99.90
44855;DHT22;30591;48.228;16.398;2022-11-20T06:08:47;0.30;99.90
44855;DHT22;30591;48.228;16.398;2022-11-20T06:11:15;0.40;99.90
44855;DHT22;30591;48.228;16.398;2022-11-20T06:13:42;0.40;99.90
44855;DHT22;30591;48.228;16.398;2022-11-20T06:16:11;0.40;99.90
44855;DHT22;30591;48.228;16.398;2022-11-20T06:18:39;0.30;99.90
44855;DHT22;30591;48.228;16.398;2022-11-20T06:21:09;0.40;99.90
44855;DHT22;30591;48.228;16.398;2022-11-20T06:23:37;0.40;99.90
44855;DHT22;30591;48.228;16.398;2022-11-20T06:26:08;0.40;99.90
44855;DHT22;30591;48.228;16.398;2022-11-20T06:28:35;0.40;99.90
44855;DHT22;30591;48.228;16.398;2022-11-20T06:31:04;0.40;99.90
44855;DHT22;30591;48.228;16.398;2022-11-20T06:33:32;0.30;99.90
44855;DHT22;30591;48.228;16.398;2022-11-20T06:36:00;0.40;99.90
44855;DHT22;30591;48.228;16.398;2022-11-20T06:38:38;0.40;99.90
44855;DHT22;30591;48.228;16.398;2022-11-20T06:41:07;0.50;99.90
44855;DHT22;30591;48.228;16.398;2022-11-20T06:43:34;0.50;99.90
44855;DHT22;30591;48.228;16.398;2022-11-20T06:46:02;0.50;99.90
44855;DHT22;30591;48.228;16.398;2022-11-20T06:48:30;0.50;99.90
44855;DHT22;30591;48.228;16.398;2022-11-20T06:50:57;0.50;99.90
44855;DHT22;30591;48.228;16.398;2022-11-20T06:53:25;0.40;99.90
44855;DHT22;30591;48.228;16.398;2022-11-20T06:55:56;0.50;99.90
44855;DHT22;30591;48.228;16.398;2022-11-20T06:58:31;0.50;99.90
44855;DHT22;30591;48.228;16.398;2022-11-20T07:01:00;0.50;99.90
44855;DHT22;30591;48.228;16.398;2022-11-20T07:03:27;0.50;99.90
44855;DHT22;30591;48.228;16.398;2022-11-20T07:05:56;0.60;99.90
44855;DHT22;30591;48.228;16.398;2022-11-20T07:08:25;0.50;99.90
44855;DHT22;30591;48.228;16.398;2022-11-20T07:10:58;0.50;99.90
44855;DHT22;30591;48.228;16.398;2022-11-20T07:13:27;0.60;99.90
44855;DHT22;30591;48.228;16.398;2022-11-20T07:15:55;0.60;99.90
44855;DHT22;30591;48.228;16.398;2022-11-20T07:18:26;0.70;99.90
44855;DHT22;30591;48.228;16.398;2022-11-20T07:20:53;0.60;99.90
44855;DHT22;30591;48.228;16.398;2022-11-20T07:23:20;0.70;99.90
44855;DHT22;30591;48.228;16.398;2022-11-20T07:25:47;0.60;99.90
44855;DHT22;30591;48.228;16.398;2022-11-20T07:28:14;0.70;99.90
44855;DHT22;30591;48.228;16.398;2022-11-20T07:30:42;0.70;99.90
44855;DHT22;30591;48.228;16.398;2022-11-20T07:33:09;0.70;99.90
44855;DHT22;30591;48.228;16.398;2022-11-20T07:35:36;0.70;99.90
44855;DHT22;30591;48.228;16.398;2022-11-20T07:38:03;0.70;99.90
44855;DHT22;30591;48.228;16.398;2022-11-20T07:40:30;0.70;99.90
44855;DHT22;30591;48.228;16.398;2022-11-20T07:42:58;0.70;99.90
44855;DHT22;30591;48.228;16.398;2022-11-20T07:45:25;0.70;99.90
44855;DHT22;30591;48.228;16.398;2022-11-20T07:47:52;0.70;99.90
44855;DHT22;30591;48.228;16.398;2022-11-20T07:50:19;0.70;99.90
44855;DHT22;30591;48.228;16.398;2022-11-20T07:52:47;0.70;99.90
44855;DHT22;30591;48.228;16.398;2022-11-20T07:55:15;0.70;99.90
44855;DHT22;30591;48.228;16.398;2022-11-20T07:57:42;0.60;99.90
44855;DHT22;30591;48.228;16.398;2022-11-20T08:00:11;0.70;99.90
44855;DHT22;30591;48.228;16.398;2022-11-20T08:02:39;0.70;99.90
44855;DHT22;30591;48.228;16.398;2022-11-20T08:05:09;0.70;99.90
44855;DHT22;30591;48.228;16.398;2022-11-20T08:07:38;0.60;99.90
44855;DHT22;30591;48.228;16.398;2022-11-20T08:10:08;0.70;99.90
44855;DHT22;30591;48.228;16.398;2022-11-20T08:12:35;0.80;99.90
44855;DHT22;30591;48.228;16.398;2022-11-20T08:15:21;0.70;99.90
44855;DHT22;30591;48.228;16.398;2022-11-20T08:17:48;0.70;99.90
44855;DHT22;30591;48.228;16.398;2022-11-20T08:20:36;1.00;99.90
44855;DHT22;30591;48.228;16.398;2022-11-20T08:23:05;1.00;99.90
44855;DHT22;30591;48.228;16.398;2022-11-20T08:25:37;1.10;99.90
44855;DHT22;30591;48.228;16.398;2022-11-20T08:28:07;1.20;99.90
44855;DHT22;30591;48.228;16.398;2022-11-20T08:30:46;1.20;99.90
44855;DHT22;30591;48.228;16.398;2022-11-20T08:33:13;1.10;99.90
44855;DHT22;30591;48.228;16.398;2022-11-20T08:35:40;1.00;99.90
44855;DHT22;30591;48.228;16.398;2022-11-20T08:38:09;1.00;99.90
44855;DHT22;30591;48.228;16.398;2022-11-20T08:40:36;1.10;99.90
44855;DHT22;30591;48.228;16.398;2022-11-20T08:43:03;1.20;99.90
44855;DHT22;30591;48.228;16.398;2022-11-20T08:45:31;1.20;99.90
44855;DHT22;30591;48.228;16.398;2022-11-20T08:48:02;1.20;99.90
44855;DHT22;30591;48.228;16.398;2022-11-20T08:50:31;1.20;99.90
44855;DHT22;30591;48.228;16.398;2022-11-20T08:53:06;1.20;99.90
44855;DHT22;30591;48.228;16.398;2022-11-20T08:55:33;1.30;99.90
44855;DHT22;30591;48.228;16.398;2022-11-20T08:58:05;1.30;99.90
44855;DHT22;30591;48.228;16.398;2022-11-20T09:00:33;1.40;99.90
44855;DHT22;30591;48.228;16.398;2022-11-20T09:03:01;1.60;99.90
44855;DHT22;30591;48.228;16.398;2022-11-20T09:05:29;2.00;99.90
44855;DHT22;30591;48.228;16.398;2022-11-20T09:07:59;2.20;99.90
44855;DHT22;30591;48.228;16.398;2022-11-20T09:10:27;2.00;99.90
44855;DHT22;30591;48.228;16.398;2022-11-20T09:12:55;1.70;99.90
44855;DHT22;30591;48.228;16.398;2022-11-20T09:15:24;1.60;99.90
44855;DHT22;30591;48.228;16.398;2022-11-20T09:20:19;1.50;99.90
44855;DHT22;30591;48.228;16.398;2022-11-20T09:22:47;1.50;99.90
44855;DHT22;30591;48.228;16.398;2022-11-20T09:25:14;1.50;99.90
44855;DHT22;30591;48.228;16.398;2022-11-20T09:27:42;1.40;99.90
44855;DHT22;30591;48.228;16.398;2022-11-20T09:30:12;1.40;99.90
44855;DHT22;30591;48.228;16.398;2022-11-20T09:32:40;1.30;99.90
44855;DHT22;30591;48.228;16.398;2022-11-20T09:35:08;1.50;99.90
44855;DHT22;30591;48.228;16.398;2022-11-20T09:37:35;1.70;99.90
44855;DHT22;30591;48.228;16.398;2022-11-20T09:40:02;1.50;99.90
44855;DHT22;30591;48.228;16.398;2022-11-20T09:51:46;1.60;99.90
44855;DHT22;30591;48.228;16.398;2022-11-20T09:56:48;1.50;99.90
44855;DHT22;30591;48.228;16.398;2022-11-20T09:59:39;1.60;99.90
44855;DHT22;30591;48.228;16.398;2022-11-20T10:10:58;1.60;99.90
44855;DHT22;30591;48.228;16.398;2022-11-20T10:24:34;1.80;99.90
44855;DHT22;30591;48.228;16.398;2022-11-20T10:27:33;2.00;99.90
44855;DHT22;30591;48.228;16.398;2022-11-20T10:30:10;1.80;99.90
44855;DHT22;30591;48.228;16.398;2022-11-20T10:32:45;1.90;99.90
44855;DHT22;30591;48.228;16.398;2022-11-20T10:35:32;1.90;99.90
44855;DHT22;30591;48.228;16.398;2022-11-20T10:38:05;2.10;99.90
44855;DHT22;30591;48.228;16.398;2022-11-20T10:40:42;2.00;99.90
44855;DHT22;30591;48.228;16.398;2022-11-20T10:46:11;1.80;99.90
44855;DHT22;30591;48.228;16.398;2022-11-20T10:48:43;2.10;99.90
44855;DHT22;30591;48.228;16.398;2022-11-20T10:51:21;1.80;99.90
44855;DHT22;30591;48.228;16.398;2022-11-20T10:54:47;1.90;99.90
44855;DHT22;30591;48.228;16.398;2022-11-20T10:57:39;1.90;99.90
44855;DHT22;30591;48.228;16.398;2022-11-20T11:00:12;2.00;99.90
44855;DHT22;30591;48.228;16.398;2022-11-20T11:02:45;1.90;99.90
44855;DHT22;30591;48.228;16.398;2022-11-20T11:05:43;1.90;99.90
44855;DHT22;30591;48.228;16.398;2022-11-20T11:08:17;1.90;99.90
44855;DHT22;30591;48.228;16.398;2022-11-20T11:10:57;2.00;99.90
44855;DHT22;30591;48.228;16.398;2022-11-20T11:13:28;2.10;99.90
44855;DHT22;30591;48.228;16.398;2022-11-20T11:15:56;2.20;99.90
44855;DHT22;30591;48.228;16.398;2022-11-20T11:18:34;2.20;99.90
44855;DHT22;30591;48.228;16.398;2022-11-20T11:21:04;2.20;99.90
44855;DHT22;30591;48.228;16.398;2022-11-20T11:23:41;2.10;99.90
44855;DHT22;30591;48.228;16.398;2022-11-20T11:26:23;2.10;99.90
44855;DHT22;30591;48.228;16.398;2022-11-20T11:29:00;2.10;99.90
44855;DHT22;30591;48.228;16.398;2022-11-20T11:31:32;2.10;99.90
44855;DHT22;30591;48.228;16.398;2022-11-20T11:34:14;2.30;99.90
44855;DHT22;30591;48.228;16.398;2022-11-20T11:36:49;2.50;99.90
44855;DHT22;30591;48.228;16.398;2022-11-20T11:39:20;2.60;99.90
44855;DHT22;30591;48.228;16.398;2022-11-20T11:41:50;2.80;99.90
44855;DHT22;30591;48.228;16.398;2022-11-20T11:44:20;2.70;99.90
44855;DHT22;30591;48.228;16.398;2022-11-20T12:04:36;2.70;99.90
44855;DHT22;30591;48.228;16.398;2022-11-20T12:06:47;2.80;99.90
44855;DHT22;30591;48.228;16.398;2022-11-20T12:09:18;2.90;99.90
44855;DHT22;30591;48.228;16.398;2022-11-20T12:12:12;2.90;99.90
44855;DHT22;30591;48.228;16.398;2022-11-20T12:14:43;3.00;99.90
44855;DHT22;30591;48.228;16.398;2022-11-20T12:17:13;3.00;99.90
44855;DHT22;30591;48.228;16.398;2022-11-20T12:19:41;3.00;99.90
44855;DHT22;30591;48.228;16.398;2022-11-20T12:22:42;3.10;99.90
44855;DHT22;30591;48.228;16.398;2022-11-20T12:25:23;3.30;99.90
44855;DHT22;30591;48.228;16.398;2022-11-20T12:30:20;3.30;99.90
44855;DHT22;30591;48.228;16.398;2022-11-20T12:38:53;3.10;99.90
44855;DHT22;30591;48.228;16.398;2022-11-20T12:41:56;3.20;99.90
44855;DHT22;30591;48.228;16.398;2022-11-20T12:56:50;2.90;99.90
44855;DHT22;30591;48.228;16.398;2022-11-20T13:07:33;3.10;99.90
44855;DHT22;30591;48.228;16.398;2022-11-20T13:10:03;3.20;99.90
44855;DHT22;30591;48.228;16.398;2022-11-20T13:12:45;3.20;99.90
44855;DHT22;30591;48.228;16.398;2022-11-20T13:18:00;3.30;99.90
44855;DHT22;30591;48.228;16.398;2022-11-20T13:20:28;3.30;99.90
44855;DHT22;30591;48.228;16.398;2022-11-20T13:22:57;3.30;99.90
44855;DHT22;30591;48.228;16.398;2022-11-20T13:25:35;3.20;99.90
44855;DHT22;30591;48.228;16.398;2022-11-20T13:30:47;3.20;99.90
44855;DHT22;30591;48.228;16.398;2022-11-20T13:33:30;3.20;99.90
44855;DHT22;30591;48.228;16.398;2022-11-20T13:36:19;3.20;99.90
44855;DHT22;30591;48.228;16.398;2022-11-20T13:38:49;3.20;99.90
44855;DHT22;30591;48.228;16.398;2022-11-20T13:41:32;3.20;99.90
44855;DHT22;30591;48.228;16.398;2022-11-20T13:46:43;3.10;99.90
44855;DHT22;30591;48.228;16.398;2022-11-20T13:49:37;3.10;99.90
44855;DHT22;30591;48.228;16.398;2022-11-20T14:02:41;3.30;99.90
44855;DHT22;30591;48.228;16.398;2022-11-20T14:05:23;3.20;99.90
44855;DHT22;30591;48.228;16.398;2022-11-20T14:07:51;3.20;99.90
44855;DHT22;30591;48.228;16.398;2022-11-20T14:10:29;3.10;99.90
44855;DHT22;30591;48.228;16.398;2022-11-20T14:13:09;3.10;99.90
44855;DHT22;30591;48.228;16.398;2022-11-20T14:15:36;3.10;99.90
44855;DHT22;30591;48.228;16.398;2022-11-20T14:18:14;3.20;99.90
44855;DHT22;30591;48.228;16.398;2022-11-20T14:20:42;3.10;99.90
44855;DHT22;30591;48.228;16.398;2022-11-20T14:23:10;3.20;99.90
44855;DHT22;30591;48.228;16.398;2022-11-20T14:25:42;3.10;99.90
44855;DHT22;30591;48.228;16.398;2022-11-20T14:28:11;3.10;99.90
44855;DHT22;30591;48.228;16.398;2022-11-20T14:30:47;3.10;99.90
44855;DHT22;30591;48.228;16.398;2022-11-20T14:33:16;3.10;99.90
44855;DHT22;30591;48.228;16.398;2022-11-20T14:35:46;3.10;99.90
44855;DHT22;30591;48.228;16.398;2022-11-20T14:38:17;3.10;99.90
44855;DHT22;30591;48.228;16.398;2022-11-20T14:40:46;3.20;99.90
44855;DHT22;30591;48.228;16.398;2022-11-20T14:43:28;3.20;99.90
44855;DHT22;30591;48.228;16.398;2022-11-20T14:46:07;3.20;99.90
44855;DHT22;30591;48.228;16.398;2022-11-20T14:48:47;3.20;99.90
44855;DHT22;30591;48.228;16.398;2022-11-20T14:54:18;3.10;99.90
44855;DHT22;30591;48.228;16.398;2022-11-20T14:57:02;3.00;99.90
44855;DHT22;30591;48.228;16.398;2022-11-20T14:59:34;2.90;99.90
44855;DHT22;30591;48.228;16.398;2022-11-20T15:02:08;2.90;99.90
44855;DHT22;30591;48.228;16.398;2022-11-20T15:04:58;2.90;99.90
44855;DHT22;30591;48.228;16.398;2022-11-20T15:07:29;2.90;99.90
44855;DHT22;30591;48.228;16.398;2022-11-20T15:12:30;2.90;99.90
44855;DHT22;30591;48.228;16.398;2022-11-20T15:14:58;2.90;99.90
44855;DHT22;30591;48.228;16.398;2022-11-20T15:17:25;2.80;99.90
44855;DHT22;30591;48.228;16.398;2022-11-20T15:19:54;2.80;99.90
44855;DHT22;30591;48.228;16.398;2022-11-20T15:22:22;2.80;99.90
44855;DHT22;30591;48.228;16.398;2022-11-20T15:24:51;2.70;99.90
44855;DHT22;30591;48.228;16.398;2022-11-20T15:27:29;2.70;99.90
44855;DHT22;30591;48.228;16.398;2022-11-20T15:29:57;2.60;99.90
44855;DHT22;30591;48.228;16.398;2022-11-20T15:32:24;2.50;99.90
44855;DHT22;30591;48.228;16.398;2022-11-20T15:34:52;2.50;99.90
44855;DHT22;30591;48.228;16.398;2022-11-20T15:37:19;2.40;99.90
44855;DHT22;30591;48.228;16.398;2022-11-20T15:39:46;2.30;99.90
44855;DHT22;30591;48.228;16.398;2022-11-20T15:42:13;2.20;99.90
44855;DHT22;30591;48.228;16.398;2022-11-20T15:44:41;2.10;99.90
44855;DHT22;30591;48.228;16.398;2022-11-20T15:47:08;2.10;99.90
44855;DHT22;30591;48.228;16.398;2022-11-20T15:49:36;2.10;99.90
44855;DHT22;30591;48.228;16.398;2022-11-20T15:52:04;2.20;99.90
44855;DHT22;30591;48.228;16.398;2022-11-20T15:54:31;2.20;99.90
44855;DHT22;30591;48.228;16.398;2022-11-20T15:56:58;2.20;99.90
44855;DHT22;30591;48.228;16.398;2022-11-20T15:59:27;2.20;99.90
44855;DHT22;30591;48.228;16.398;2022-11-20T16:01:54;2.10;99.90
44855;DHT22;30591;48.228;16.398;2022-11-20T16:04:22;2.20;99.90
44855;DHT22;30591;48.228;16.398;2022-11-20T16:06:50;2.20;99.90
44855;DHT22;30591;48.228;16.398;2022-11-20T16:09:17;2.30;99.90
44855;DHT22;30591;48.228;16.398;2022-11-20T16:11:44;2.30;99.90
44855;DHT22;30591;48.228;16.398;2022-11-20T16:14:11;2.30;99.90
44855;DHT22;30591;48.228;16.398;2022-11-20T16:16:58;2.30;99.90
44855;DHT22;30591;48.228;16.398;2022-11-20T16:19:25;2.30;99.90
44855;DHT22;30591;48.228;16.398;2022-11-20T16:21:52;2.30;99.90
44855;DHT22;30591;48.228;16.398;2022-11-20T16:24:25;2.30;99.90
44855;DHT22;30591;48.228;16.398;2022-11-20T16:26:54;2.30;99.90
44855;DHT22;30591;48.228;16.398;2022-11-20T16:29:22;2.40;99.90
44855;DHT22;30591;48.228;16.398;2022-11-20T16:31:49;2.40;99.90
44855;DHT22;30591;48.228;16.398;2022-11-20T16:34:17;2.40;99.90
44855;DHT22;30591;48.228;16.398;2022-11-20T16:36:46;2.50;99.90
44855;DHT22;30591;48.228;16.398;2022-11-20T16:39:14;2.50;99.90
44855;DHT22;30591;48.228;16.398;2022-11-20T16:41:49;2.50;99.90
44855;DHT22;30591;48.228;16.398;2022-11-20T16:44:16;2.40;99.90
44855;DHT22;30591;48.228;16.398;2022-11-20T16:46:43;2.50;99.90
44855;DHT22;30591;48.228;16.398;2022-11-20T16:49:12;2.50;99.90
44855;DHT22;30591;48.228;16.398;2022-11-20T16:51:40;2.50;99.90
44855;DHT22;30591;48.228;16.398;2022-11-20T16:54:09;2.50;99.90
44855;DHT22;30591;48.228;16.398;2022-11-20T16:56:40;2.50;99.90
44855;DHT22;30591;48.228;16.398;2022-11-20T16:59:08;2.50;99.90
44855;DHT22;30591;48.228;16.398;2022-11-20T17:01:36;2.50;99.90
44855;DHT22;30591;48.228;16.398;2022-11-20T17:04:06;2.40;99.90
44855;DHT22;30591;48.228;16.398;2022-11-20T17:06:35;2.40;99.90
44855;DHT22;30591;48.228;16.398;2022-11-20T17:09:04;2.30;99.90
44855;DHT22;30591;48.228;16.398;2022-11-20T17:11:32;2.20;99.90
44855;DHT22;30591;48.228;16.398;2022-11-20T17:14:00;2.20;99.90
44855;DHT22;30591;48.228;16.398;2022-11-20T17:16:30;2.30;99.90
44855;DHT22;30591;48.228;16.398;2022-11-20T17:18:58;2.30;99.90
44855;DHT22;30591;48.228;16.398;2022-11-20T17:21:30;2.30;99.90
44855;DHT22;30591;48.228;16.398;2022-11-20T17:24:02;2.20;99.90
44855;DHT22;30591;48.228;16.398;2022-11-20T17:26:30;2.20;99.90
44855;DHT22;30591;48.228;16.398;2022-11-20T17:29:00;2.30;99.90
44855;DHT22;30591;48.228;16.398;2022-11-20T17:31:29;2.40;99.90
44855;DHT22;30591;48.228;16.398;2022-11-20T17:33:57;2.50;99.90
44855;DHT22;30591;48.228;16.398;2022-11-20T17:36:27;2.50;99.90
44855;DHT22;30591;48.228;16.398;2022-11-20T17:38:56;2.50;99.90
44855;DHT22;30591;48.228;16.398;2022-11-20T17:41:26;2.50;99.90
44855;DHT22;30591;48.228;16.398;2022-11-20T17:43:59;2.50;99.90
44855;DHT22;30591;48.228;16.398;2022-11-20T17:46:29;2.50;99.90